createdAt,value
2022-12-31T00:01:33.734Z,74.51
2022-12-31T00:04:05.926Z,74.48
2022-12-31T00:06:38.120Z,74.41
2022-12-31T00:09:11.526Z,74.54
2022-12-31T00:11:43.107Z,74.50
2022-12-31T00:14:14.699Z,74.50
2022-12-31T00:16:46.479Z,74.59
2022-12-31T00:19:18.088Z,74.57
2022-12-31T00:21:49.818Z,74.73
2022-12-31T00:24:21.399Z,74.78
2022-12-31T00:26:52.984Z,74.90
2022-12-31T00:29:24.730Z,74.83
2022-12-31T00:31:56.572Z,74.82
2022-12-31T00:34:28.293Z,74.76
2022-12-31T00:36:59.927Z,74.75
2022-12-31T00:39:31.746Z,74.79
2022-12-31T00:42:03.511Z,74.70
2022-12-31T00:44:35.108Z,74.67
2022-12-31T00:47:06.993Z,74.69
2022-12-31T00:49:38.862Z,74.71
2022-12-31T00:52:13.712Z,74.73
2022-12-31T00:54:45.283Z,74.70
2022-12-31T00:57:17.206Z,74.69
2022-12-31T00:59:48.843Z,74.76
2022-12-31T01:02:20.578Z,74.80
2022-12-31T01:04:53.026Z,74.78
2022-12-31T01:07:24.615Z,74.63
2022-12-31T01:09:56.171Z,74.76
2022-12-31T01:12:28.302Z,74.83
2022-12-31T01:14:59.981Z,74.85
2022-12-31T01:17:31.601Z,74.99
2022-12-31T01:20:03.237Z,75.02
2022-12-31T01:22:34.942Z,75.04
2022-12-31T01:25:08.119Z,75.07
2022-12-31T01:27:39.705Z,75.02
2022-12-31T01:30:13.455Z,74.95
2022-12-31T01:32:45.036Z,75.08
2022-12-31T01:35:16.959Z,75.02
2022-12-31T01:37:48.719Z,74.86
2022-12-31T01:40:20.681Z,74.66
2022-12-31T01:42:59.752Z,74.72
2022-12-31T01:45:31.714Z,74.86
2022-12-31T01:48:03.696Z,74.79
2022-12-31T01:50:38.936Z,75.11
2022-12-31T01:53:12.053Z,75.30
2022-12-31T01:55:49.509Z,75.29
2022-12-31T01:58:24.459Z,75.22
2022-12-31T02:00:58.751Z,75.31
2022-12-31T02:03:31.936Z,75.31
2022-12-31T02:06:10.046Z,75.11
2022-12-31T02:08:42.588Z,74.87
2022-12-31T02:11:27.619Z,74.97
2022-12-31T02:14:02.952Z,75.30
2022-12-31T02:16:41.433Z,75.37
2022-12-31T02:19:43.899Z,75.46
2022-12-31T02:22:23.784Z,75.50
2022-12-31T02:25:19.336Z,75.39
2022-12-31T02:28:04.157Z,75.34
2022-12-31T02:30:37.021Z,75.19
2022-12-31T02:33:15.057Z,75.00
2022-12-31T02:35:52.624Z,75.01
2022-12-31T02:38:30.015Z,75.26
2022-12-31T02:41:02.938Z,75.56
2022-12-31T02:43:34.473Z,75.78
2022-12-31T02:46:15.166Z,75.67
2022-12-31T02:48:53.677Z,75.75
2022-12-31T02:51:40.291Z,75.69
2022-12-31T02:54:33.189Z,75.70
2022-12-31T02:57:12.320Z,75.53
2022-12-31T03:00:09.423Z,75.63
2022-12-31T03:02:43.973Z,75.68
2022-12-31T03:05:18.374Z,75.69
2022-12-31T03:07:50.442Z,75.92
2022-12-31T03:10:22.917Z,76.13
2022-12-31T03:12:54.665Z,76.26
2022-12-31T03:15:28.594Z,76.49
2022-12-31T03:18:05.204Z,76.62
2022-12-31T03:20:57.153Z,76.70
2022-12-31T03:23:31.559Z,76.60
2022-12-31T03:26:04.676Z,76.73
2022-12-31T03:28:36.587Z,76.77
2022-12-31T03:31:09.086Z,76.77
2022-12-31T03:33:42.661Z,76.68
2022-12-31T03:36:16.720Z,76.58
2022-12-31T03:38:52.548Z,76.91
2022-12-31T03:41:24.664Z,76.83
2022-12-31T03:43:56.243Z,76.92
2022-12-31T03:46:27.968Z,76.94
2022-12-31T03:48:59.762Z,76.94
2022-12-31T03:51:31.358Z,76.93
2022-12-31T03:54:02.991Z,77.01
2022-12-31T03:56:35.646Z,77.11
2022-12-31T03:59:07.364Z,77.28
2022-12-31T04:01:39.328Z,77.29
2022-12-31T04:04:11.270Z,77.33
2022-12-31T04:06:42.921Z,77.50
2022-12-31T04:09:14.559Z,77.94
2022-12-31T04:11:46.223Z,77.92
2022-12-31T04:14:18.128Z,77.86
2022-12-31T04:16:49.810Z,77.90
2022-12-31T04:19:21.870Z,77.84
2022-12-31T04:21:53.916Z,77.72
2022-12-31T04:24:26.035Z,77.85
2022-12-31T04:27:02.117Z,77.79
2022-12-31T04:29:37.544Z,77.94
2022-12-31T04:32:10.313Z,77.69
2022-12-31T04:34:42.098Z,77.68
2022-12-31T04:37:13.662Z,77.43
2022-12-31T04:39:45.279Z,77.45
2022-12-31T04:42:16.873Z,77.37
2022-12-31T04:44:48.474Z,77.35
2022-12-31T04:47:23.677Z,77.35
2022-12-31T04:49:55.726Z,77.27
2022-12-31T04:52:27.410Z,77.25
2022-12-31T04:54:59.134Z,77.32
2022-12-31T04:57:30.760Z,77.26
2022-12-31T05:00:02.368Z,77.07
2022-12-31T05:02:34.206Z,77.09
2022-12-31T05:05:07.031Z,77.02
2022-12-31T05:07:38.772Z,76.97
2022-12-31T05:10:11.188Z,76.84
2022-12-31T05:12:43.007Z,76.92
2022-12-31T05:15:14.827Z,76.84
2022-12-31T05:17:46.386Z,76.74
2022-12-31T05:20:18.041Z,76.77
2022-12-31T05:22:49.796Z,76.73
2022-12-31T05:25:21.569Z,76.65
2022-12-31T05:27:53.489Z,76.69
2022-12-31T05:30:26.502Z,76.69
2022-12-31T05:32:58.313Z,76.53
2022-12-31T05:35:30.004Z,76.58
2022-12-31T05:38:02.095Z,76.53
2022-12-31T05:40:34.359Z,76.58
2022-12-31T05:43:06.009Z,76.60
2022-12-31T05:45:37.629Z,76.57
2022-12-31T05:48:09.828Z,76.74
2022-12-31T05:50:41.441Z,76.90
2022-12-31T05:53:13.360Z,76.74
2022-12-31T05:55:45.715Z,76.72
2022-12-31T05:58:18.187Z,76.80
2022-12-31T06:00:49.786Z,76.76
2022-12-31T06:03:21.695Z,76.81
2022-12-31T06:05:53.604Z,76.85
2022-12-31T06:08:25.386Z,77.04
2022-12-31T06:10:56.954Z,76.98
2022-12-31T06:13:28.768Z,76.95
2022-12-31T06:16:05.620Z,76.95
2022-12-31T06:18:37.486Z,77.00
2022-12-31T06:21:09.545Z,76.92
2022-12-31T06:23:42.789Z,76.86
2022-12-31T06:26:14.732Z,76.81
2022-12-31T06:28:46.806Z,76.83
2022-12-31T06:31:18.557Z,76.80
2022-12-31T06:33:50.154Z,76.89
2022-12-31T06:36:22.848Z,76.94
2022-12-31T06:38:55.216Z,76.85
2022-12-31T06:41:26.849Z,76.73
2022-12-31T06:43:58.439Z,76.83
2022-12-31T06:46:30.278Z,76.66
2022-12-31T06:49:01.971Z,76.87
2022-12-31T06:51:33.621Z,77.00
2022-12-31T06:54:05.440Z,76.97
2022-12-31T06:56:38.350Z,77.05
2022-12-31T06:59:23.915Z,76.96
2022-12-31T07:02:08.708Z,76.98
2022-12-31T07:05:04.544Z,76.99
2022-12-31T07:07:45.626Z,76.90
2022-12-31T07:10:30.047Z,76.74
2022-12-31T07:13:23.598Z,76.72
2022-12-31T07:16:20.451Z,76.69
2022-12-31T07:18:59.109Z,76.72
2022-12-31T07:21:36.797Z,76.70
2022-12-31T07:24:12.075Z,76.70
2022-12-31T07:26:57.277Z,76.72
2022-12-31T07:29:39.978Z,76.65
2022-12-31T07:32:24.293Z,76.73
2022-12-31T07:35:03.602Z,76.69
2022-12-31T07:37:46.554Z,76.55
2022-12-31T07:40:25.346Z,76.62
2022-12-31T07:43:09.833Z,76.54
2022-12-31T07:45:47.912Z,76.66
2022-12-31T07:48:25.933Z,76.68
2022-12-31T07:50:59.467Z,76.57
2022-12-31T07:53:32.336Z,76.62
2022-12-31T07:56:05.928Z,76.59
2022-12-31T07:58:48.759Z,76.60
2022-12-31T08:01:34.691Z,76.60
2022-12-31T08:04:16.986Z,76.72
2022-12-31T08:06:59.438Z,76.49
2022-12-31T08:09:43.678Z,76.58
2022-12-31T08:12:15.886Z,76.50
2022-12-31T08:14:49.329Z,76.65
2022-12-31T08:17:22.592Z,76.42
2022-12-31T08:19:55.274Z,76.40
2022-12-31T08:22:46.535Z,76.48
2022-12-31T08:25:27.114Z,76.47
2022-12-31T08:28:11.427Z,76.26
2022-12-31T08:30:59.235Z,76.21
2022-12-31T08:33:36.683Z,76.24
2022-12-31T08:36:21.457Z,76.27
2022-12-31T08:38:59.113Z,76.30
2022-12-31T08:41:42.261Z,76.30
2022-12-31T08:44:24.703Z,76.11
2022-12-31T08:47:04.762Z,75.80
2022-12-31T08:49:38.067Z,75.70
2022-12-31T08:52:17.022Z,75.58
2022-12-31T08:54:49.995Z,75.63
2022-12-31T08:57:31.157Z,75.48
2022-12-31T09:00:08.373Z,75.48
2022-12-31T09:03:11.731Z,75.68
2022-12-31T09:05:54.540Z,75.62
2022-12-31T09:08:36.067Z,75.55
2022-12-31T09:11:20.801Z,75.63
2022-12-31T09:14:09.188Z,75.40
2022-12-31T09:16:48.653Z,75.20
2022-12-31T09:19:20.360Z,75.26
2022-12-31T09:21:53.154Z,75.23
2022-12-31T09:24:25.739Z,75.05
2022-12-31T09:27:05.882Z,75.17
2022-12-31T09:29:53.761Z,75.16
2022-12-31T09:32:38.751Z,75.24
2022-12-31T09:35:20.675Z,75.15
2022-12-31T09:37:56.557Z,75.00
2022-12-31T09:40:51.841Z,74.83
2022-12-31T09:44:01.219Z,74.67
2022-12-31T09:47:02.214Z,74.53
2022-12-31T09:50:11.185Z,74.58
2022-12-31T09:52:59.671Z,74.68
2022-12-31T09:55:37.965Z,74.63
2022-12-31T09:58:25.723Z,74.63
2022-12-31T10:01:04.982Z,74.51
2022-12-31T10:03:53.116Z,74.53
2022-12-31T10:06:32.043Z,74.57
2022-12-31T10:09:19.882Z,74.65
2022-12-31T10:12:34.240Z,74.56
2022-12-31T10:15:36.959Z,74.48
2022-12-31T10:18:19.143Z,74.37
2022-12-31T10:21:12.073Z,74.65
2022-12-31T10:24:01.141Z,74.51
2022-12-31T10:26:45.351Z,74.40
2022-12-31T10:29:34.476Z,74.44
2022-12-31T10:32:23.739Z,74.39
2022-12-31T10:35:12.705Z,74.12
2022-12-31T10:37:51.182Z,73.98
2022-12-31T10:40:33.819Z,74.13
2022-12-31T10:43:53.007Z,74.17
2022-12-31T10:46:56.933Z,74.15
2022-12-31T10:50:05.044Z,74.06
2022-12-31T10:53:22.363Z,74.18
2022-12-31T10:56:21.690Z,74.14
2022-12-31T10:59:29.878Z,74.07
2022-12-31T11:02:20.211Z,74.04
2022-12-31T11:05:38.238Z,74.03
2022-12-31T11:08:33.306Z,73.98
2022-12-31T11:11:19.178Z,73.90
2022-12-31T11:14:21.755Z,73.81
2022-12-31T11:17:06.993Z,73.84
2022-12-31T11:19:48.021Z,73.78
2022-12-31T11:22:41.835Z,73.64
2022-12-31T11:25:41.228Z,73.56
2022-12-31T11:28:41.525Z,73.61
2022-12-31T11:31:29.441Z,73.28
2022-12-31T11:34:26.200Z,73.33
2022-12-31T11:37:17.712Z,73.32
2022-12-31T11:39:59.299Z,73.36
2022-12-31T11:42:42.699Z,73.13
2022-12-31T11:45:27.861Z,73.08
2022-12-31T11:48:30.171Z,73.15
2022-12-31T11:51:26.911Z,73.09
2022-12-31T11:54:30.152Z,73.07
2022-12-31T11:57:14.391Z,73.02
2022-12-31T11:59:46.271Z,72.94
2022-12-31T12:02:28.540Z,72.76
2022-12-31T12:05:10.689Z,72.84
2022-12-31T12:07:43.319Z,72.60
2022-12-31T12:10:33.542Z,72.43
2022-12-31T12:13:20.367Z,72.41
2022-12-31T12:15:55.390Z,72.40
2022-12-31T12:18:42.934Z,72.35
2022-12-31T12:21:17.896Z,72.34
2022-12-31T12:23:59.821Z,72.05
2022-12-31T12:26:37.176Z,71.95
2022-12-31T12:29:20.620Z,71.98
2022-12-31T12:31:59.688Z,71.99
2022-12-31T12:34:33.332Z,71.87
2022-12-31T12:37:08.894Z,71.91
2022-12-31T12:39:41.319Z,71.94
2022-12-31T12:42:16.355Z,71.82
2022-12-31T12:44:47.934Z,71.80
2022-12-31T12:47:21.121Z,71.79
2022-12-31T12:49:56.459Z,71.71
2022-12-31T12:52:46.854Z,71.60
2022-12-31T12:55:26.714Z,71.62
2022-12-31T12:58:08.146Z,71.54
2022-12-31T13:00:49.851Z,71.43
2022-12-31T13:03:36.975Z,71.47
2022-12-31T13:06:26.627Z,71.45
2022-12-31T13:09:08.476Z,71.42
2022-12-31T13:11:47.354Z,71.38
2022-12-31T13:14:31.977Z,71.21
2022-12-31T13:17:19.883Z,71.23
2022-12-31T13:19:56.699Z,71.27
2022-12-31T13:22:35.282Z,71.29
2022-12-31T13:25:21.891Z,71.26
2022-12-31T13:27:56.501Z,71.24
2022-12-31T13:30:33.426Z,71.20
2022-12-31T13:33:12.690Z,71.12
2022-12-31T13:35:47.871Z,71.23
2022-12-31T13:38:22.639Z,71.17
2022-12-31T13:41:02.978Z,71.20
2022-12-31T13:43:48.816Z,71.17
2022-12-31T13:46:29.420Z,71.18
2022-12-31T13:49:04.137Z,71.02
2022-12-31T13:51:45.488Z,71.15
2022-12-31T13:54:30.002Z,71.16
2022-12-31T13:57:06.616Z,71.21
2022-12-31T13:59:42.821Z,71.26
2022-12-31T14:02:33.691Z,71.22
2022-12-31T14:05:15.043Z,71.23
2022-12-31T14:07:53.468Z,71.18
2022-12-31T14:10:36.259Z,71.15
2022-12-31T14:13:20.740Z,71.21
2022-12-31T14:16:13.055Z,71.23
2022-12-31T14:18:51.554Z,71.13
2022-12-31T14:21:29.688Z,71.24
2022-12-31T14:24:07.905Z,71.25
2022-12-31T14:26:43.926Z,71.34
2022-12-31T14:29:30.582Z,71.30
2022-12-31T14:32:28.318Z,71.30
2022-12-31T14:35:14.749Z,71.33
2022-12-31T14:37:58.040Z,71.34
2022-12-31T14:40:37.823Z,71.38
2022-12-31T14:43:19.787Z,71.36
2022-12-31T14:46:04.903Z,71.41
2022-12-31T14:48:47.219Z,71.37
2022-12-31T14:51:19.189Z,71.42
2022-12-31T14:53:57.796Z,71.42
2022-12-31T14:56:34.216Z,71.47
2022-12-31T14:59:19.402Z,71.44
2022-12-31T15:01:51.014Z,71.58
2022-12-31T15:04:34.607Z,71.60
2022-12-31T15:07:19.001Z,71.57
2022-12-31T15:10:05.258Z,71.49
2022-12-31T15:12:55.769Z,71.52
2022-12-31T15:15:44.647Z,71.57
2022-12-31T15:18:36.542Z,71.57
2022-12-31T15:21:38.024Z,71.55
2022-12-31T15:24:22.699Z,71.52
2022-12-31T15:26:57.640Z,71.55
2022-12-31T15:29:33.165Z,71.70
2022-12-31T15:32:08.980Z,71.63
2022-12-31T15:34:40.670Z,71.63
2022-12-31T15:37:30.979Z,71.59
2022-12-31T15:40:21.036Z,71.52
2022-12-31T15:42:56.626Z,71.50
2022-12-31T15:45:33.743Z,71.55
2022-12-31T15:48:10.157Z,71.49
2022-12-31T15:50:43.673Z,71.46
2022-12-31T15:53:28.298Z,71.57
2022-12-31T15:56:03.119Z,71.49
2022-12-31T15:58:37.591Z,71.49
2022-12-31T16:01:15.948Z,71.56
2022-12-31T16:03:50.968Z,71.51
2022-12-31T16:06:22.739Z,71.45
2022-12-31T16:08:55.607Z,71.49
2022-12-31T16:11:30.403Z,71.46
2022-12-31T16:14:02.050Z,71.38
2022-12-31T16:16:36.084Z,71.48
2022-12-31T16:19:28.655Z,71.51
2022-12-31T16:22:02.168Z,71.54
2022-12-31T16:24:37.491Z,71.53
2022-12-31T16:27:18.216Z,71.50
2022-12-31T16:29:55.938Z,71.38
2022-12-31T16:32:27.866Z,71.40
2022-12-31T16:34:59.446Z,71.37
2022-12-31T16:37:31.113Z,71.32
2022-12-31T16:40:21.749Z,71.25
2022-12-31T16:42:53.558Z,71.26
2022-12-31T16:45:36.737Z,71.15
2022-12-31T16:48:18.649Z,71.20
2022-12-31T16:50:54.146Z,71.06
2022-12-31T16:53:29.818Z,71.03
2022-12-31T16:56:04.375Z,70.95
2022-12-31T16:58:38.660Z,70.85
2022-12-31T17:01:17.946Z,70.91
2022-12-31T17:03:53.073Z,70.93
2022-12-31T17:06:25.704Z,70.85
2022-12-31T17:09:13.916Z,70.90
2022-12-31T17:11:52.936Z,70.69
2022-12-31T17:14:26.623Z,70.72
2022-12-31T17:17:02.713Z,70.77
2022-12-31T17:19:38.813Z,70.76
2022-12-31T17:22:16.525Z,70.71
2022-12-31T17:24:51.050Z,70.77
2022-12-31T17:27:22.837Z,70.82
2022-12-31T17:29:54.698Z,70.80
2022-12-31T17:32:37.197Z,70.84
2022-12-31T17:35:30.416Z,70.72
2022-12-31T17:38:33.068Z,70.62
2022-12-31T17:41:25.614Z,70.71
2022-12-31T17:43:58.361Z,70.59
2022-12-31T17:46:30.289Z,70.68
2022-12-31T17:49:03.708Z,70.71
2022-12-31T17:51:35.328Z,70.56
2022-12-31T17:54:13.308Z,70.59
2022-12-31T17:56:45.552Z,70.73
2022-12-31T17:59:19.277Z,70.76
2022-12-31T18:01:49.750Z,70.74
2022-12-31T18:04:21.716Z,70.62
2022-12-31T18:06:53.327Z,70.74
2022-12-31T18:09:25.041Z,70.59
2022-12-31T18:12:01.368Z,70.59
2022-12-31T18:14:33.361Z,70.70
2022-12-31T18:17:06.998Z,70.71
2022-12-31T18:20:03.694Z,70.68
2022-12-31T18:22:30.920Z,70.58
2022-12-31T18:25:04.484Z,70.55
2022-12-31T18:27:36.614Z,70.58
2022-12-31T18:30:10.484Z,70.60
2022-12-31T18:32:44.046Z,70.50
2022-12-31T18:35:40.688Z,70.39
2022-12-31T18:38:14.877Z,70.51
2022-12-31T18:40:51.880Z,70.49
2022-12-31T18:43:25.111Z,70.57
2022-12-31T18:45:56.965Z,70.44
2022-12-31T18:48:28.821Z,70.51
2022-12-31T18:51:00.422Z,70.54
2022-12-31T18:53:32.034Z,70.39
2022-12-31T18:56:03.591Z,70.39
2022-12-31T18:58:35.466Z,70.33
2022-12-31T19:01:10.887Z,70.28
2022-12-31T19:03:42.600Z,70.24
2022-12-31T19:06:14.209Z,70.21
2022-12-31T19:08:45.798Z,70.24
2022-12-31T19:11:17.857Z,70.16
2022-12-31T19:13:51.106Z,70.29
2022-12-31T19:16:22.849Z,70.36
2022-12-31T19:18:54.484Z,70.16
2022-12-31T19:21:26.086Z,70.20
2022-12-31T19:23:57.663Z,70.29
2022-12-31T19:26:29.803Z,70.03
2022-12-31T19:29:01.386Z,70.02
2022-12-31T19:31:33.116Z,70.07
2022-12-31T19:34:04.857Z,69.98
2022-12-31T19:36:43.545Z,70.02
2022-12-31T19:39:18.984Z,69.87
2022-12-31T19:41:58.572Z,69.73
2022-12-31T19:44:30.953Z,69.74
2022-12-31T19:47:02.779Z,69.69
2022-12-31T19:49:34.716Z,69.76
2022-12-31T19:52:06.793Z,69.72
2022-12-31T19:54:38.389Z,69.73
2022-12-31T19:57:10.025Z,69.64
2022-12-31T19:59:41.756Z,69.62
2022-12-31T20:02:13.654Z,69.62
2022-12-31T20:04:46.257Z,69.68
2022-12-31T20:07:23.571Z,69.63
2022-12-31T20:09:58.622Z,69.41
2022-12-31T20:12:30.966Z,69.47
2022-12-31T20:15:02.616Z,69.56
2022-12-31T20:17:34.865Z,69.41
2022-12-31T20:20:08.139Z,69.55
2022-12-31T20:22:39.763Z,69.43
2022-12-31T20:25:12.133Z,69.42
2022-12-31T20:27:43.728Z,69.39
2022-12-31T20:30:16.696Z,69.23
2022-12-31T20:32:48.378Z,69.25
2022-12-31T20:35:20.234Z,69.31
2022-12-31T20:37:51.850Z,69.20
2022-12-31T20:40:23.504Z,69.16
2022-12-31T20:42:55.232Z,69.06
2022-12-31T20:45:26.879Z,69.16
2022-12-31T20:47:58.644Z,69.03
2022-12-31T20:50:30.328Z,68.96
2022-12-31T20:53:02.036Z,68.88
2022-12-31T20:55:38.003Z,68.68
2022-12-31T20:58:09.631Z,68.75
2022-12-31T21:00:41.316Z,68.64
2022-12-31T21:03:36.941Z,68.58
2022-12-31T21:06:04.799Z,68.59
2022-12-31T21:08:37.083Z,68.52
2022-12-31T21:11:29.735Z,68.55
2022-12-31T21:14:02.859Z,68.36
2022-12-31T21:16:34.494Z,68.37
2022-12-31T21:19:06.501Z,68.48
2022-12-31T21:21:38.795Z,68.40
2022-12-31T21:24:11.361Z,68.34
2022-12-31T21:26:42.924Z,68.49
2022-12-31T21:29:14.707Z,68.25
2022-12-31T21:31:46.353Z,68.10
2022-12-31T21:34:17.949Z,68.11
2022-12-31T21:36:49.600Z,68.01
2022-12-31T21:39:21.181Z,68.08
2022-12-31T21:41:53.048Z,68.18
2022-12-31T21:44:26.497Z,68.02
2022-12-31T21:47:42.545Z,68.08
2022-12-31T21:50:13.661Z,68.07
2022-12-31T21:52:45.250Z,68.06
2022-12-31T21:55:39.795Z,68.03
2022-12-31T21:58:28.101Z,68.03
2022-12-31T22:01:19.428Z,68.08
2022-12-31T22:03:51.356Z,67.98
2022-12-31T22:06:24.361Z,67.95
2022-12-31T22:08:57.154Z,67.88
2022-12-31T22:11:29.840Z,68.00
2022-12-31T22:14:01.482Z,67.93
2022-12-31T22:16:33.147Z,67.96
2022-12-31T22:19:04.826Z,67.95
2022-12-31T22:21:36.385Z,67.93
2022-12-31T22:24:09.436Z,68.01
2022-12-31T22:26:46.540Z,67.96
2022-12-31T22:29:19.715Z,67.88
2022-12-31T22:31:52.264Z,68.01
2022-12-31T22:34:26.628Z,68.11
2022-12-31T22:36:58.857Z,68.16
2022-12-31T22:39:43.369Z,68.07
2022-12-31T22:42:16.253Z,68.04
2022-12-31T22:44:48.049Z,67.99
2022-12-31T22:47:19.691Z,68.06
2022-12-31T22:49:51.381Z,68.12
2022-12-31T22:52:23.054Z,68.15
2022-12-31T22:54:54.837Z,68.04
2022-12-31T22:57:26.495Z,68.10
2022-12-31T22:59:58.279Z,68.20
2022-12-31T23:02:30.042Z,68.18
2022-12-31T23:05:15.490Z,68.13
2022-12-31T23:07:48.000Z,68.20
2022-12-31T23:10:37.530Z,68.22
2022-12-31T23:13:26.820Z,68.34
2022-12-31T23:16:16.178Z,68.34
2022-12-31T23:19:05.732Z,68.44
2022-12-31T23:21:55.623Z,68.48
2022-12-31T23:24:28.829Z,68.61
2022-12-31T23:27:00.511Z,68.62
2022-12-31T23:29:32.130Z,68.68
2022-12-31T23:32:03.839Z,68.70
2022-12-31T23:34:36.087Z,68.68
2022-12-31T23:37:07.896Z,68.77
2022-12-31T23:39:39.511Z,68.67
2022-12-31T23:42:11.417Z,68.75
2022-12-31T23:44:43.068Z,68.84
2022-12-31T23:47:14.795Z,68.87
2022-12-31T23:49:46.384Z,68.84
2022-12-31T23:52:17.950Z,68.83
2022-12-31T23:54:49.539Z,68.61
2022-12-31T23:57:22.713Z,68.57
2022-12-31T23:59:54.333Z,68.67
